Time;durP1;ratioP1;P1;durP2;ratioP2;P2;SDS_P1;SDS_P2;PMS_P1;PMS_P2;Temp;Humidity;BMP_temperature;BMP_pressure;BME280_temperature;BME280_humidity;BME280_pressure;Samples;Min_cycle;Max_cycle;Signal;HPM_P1;HPM_P2
2023/03/28 00:00:49;;;;;;;;;;;;;;;1.95;37.60;92712.31;4972188;28;19914;-78
2023/03/28 00:03:17;;;;;;;;;;;;;;;1.91;37.97;92714.53;4972818;28;20017;-78
2023/03/28 00:05:47;;;;;;;;;;;;;;;1.97;37.61;92721.38;4973158;28;19992;-78
2023/03/28 00:08:13;;;;;;;;;;;;;;;1.97;37.61;92720.59;4973215;28;20277;-78
2023/03/28 00:10:39;;;;;;;;;;;;;;;2.00;36.93;92727.88;4954474;28;19989;-77
2023/03/28 00:13:04;;;;;;;;;;;;;;;2.02;37.48;92731.03;4954110;29;19925;-78
2023/03/28 00:15:30;;;;;;;;;;;;;;;2.04;37.66;92741.94;4977461;28;19922;-78
2023/03/28 00:17:58;;;;;;;;;;;;;;;2.08;38.16;92730.13;4952620;29;19918;-78
2023/03/28 00:20:23;;;;;;;;;;;;;;;2.09;38.60;92734.28;4966273;28;19960;-78
2023/03/28 00:22:48;;;;;;;;;;;;;;;2.10;37.42;92743.59;4972959;28;19949;-77
2023/03/28 00:25:14;;;;;;;;;;;;;;;2.14;37.39;92747.31;4972944;28;19920;-77
2023/03/28 00:27:39;;;;;;;;;;;;;;;2.07;38.05;92749.22;4971062;28;19926;-76
2023/03/28 00:30:06;;;;;;;;;;;;;;;2.06;37.97;92740.69;4966592;28;20495;-76
2023/03/28 00:32:32;;;;;;;;;;;;;;;2.05;37.73;92746.09;4953326;29;19918;-78
2023/03/28 00:34:58;;;;;;;;;;;;;;;2.00;37.85;92745.97;4981720;28;19910;-76
2023/03/28 00:37:24;;;;;;;;;;;;;;;2.00;37.96;92749.31;4972501;28;20273;-76
2023/03/28 00:39:49;;;;;;;;;;;;;;;1.96;37.78;92755.16;4971518;28;20262;-76
2023/03/28 00:42:19;;;;;;;;;;;;;;;1.85;38.72;92749.81;4987511;28;19925;-76
2023/03/28 00:44:48;;;;;;;;;;;;;;;1.91;38.42;92747.31;4973084;28;20412;-77
2023/03/28 00:47:26;;;;;;;;;;;;;;;1.96;38.91;92750.00;4971518;28;19953;-77
2023/03/28 00:50:12;;;;;;;;;;;;;;;1.97;39.40;92751.59;4971374;28;20323;-77
2023/03/28 00:52:43;;;;;;;;;;;;;;;1.95;39.19;92758.78;4972154;28;20004;-78
2023/03/28 00:55:14;;;;;;;;;;;;;;;1.97;39.28;92756.75;4973936;28;19914;-78
2023/03/28 00:57:40;;;;;;;;;;;;;;;1.94;39.61;92754.63;4986232;28;19915;-78
2023/03/28 01:00:11;;;;;;;;;;;;;;;1.86;39.94;92760.91;4954405;29;19921;-78
2023/03/28 01:02:40;;;;;;;;;;;;;;;1.86;40.18;92756.53;4969423;28;19918;-79
2023/03/28 01:05:10;;;;;;;;;;;;;;;1.83;39.42;92759.56;4973464;28;20280;-79
2023/03/28 01:07:40;;;;;;;;;;;;;;;1.87;39.69;92762.50;4973740;28;20364;-78
2023/03/28 01:10:06;;;;;;;;;;;;;;;1.83;40.45;92763.97;4956959;28;20372;-78
2023/03/28 01:12:33;;;;;;;;;;;;;;;1.77;40.65;92757.09;4969456;28;19919;-78
2023/03/28 01:14:59;;;;;;;;;;;;;;;1.96;40.49;92755.16;4963884;28;20265;-78
2023/03/28 01:17:33;;;;;;;;;;;;;;;1.81;40.29;92759.00;4965494;28;19921;-77
2023/03/28 01:20:02;;;;;;;;;;;;;;;1.79;40.73;92766.19;4953429;28;20369;-78
2023/03/28 01:22:31;;;;;;;;;;;;;;;1.92;40.32;92764.41;4953933;29;19917;-78
2023/03/28 01:25:09;;;;;;;;;;;;;;;1.78;40.62;92753.50;4954018;29;20284;-78
2023/03/28 01:27:51;;;;;;;;;;;;;;;1.79;40.64;92758.44;4969879;28;20289;-78
2023/03/28 01:30:23;;;;;;;;;;;;;;;1.76;41.60;92760.72;4970637;28;19918;-78
2023/03/28 01:33:08;;;;;;;;;;;;;;;1.71;41.00;92769.09;4974286;28;19921;-78
2023/03/28 01:35:40;;;;;;;;;;;;;;;1.67;41.93;92773.16;4969312;28;19922;-78
2023/03/28 01:38:25;;;;;;;;;;;;;;;1.88;40.83;92780.31;4973094;28;20028;-78
2023/03/28 01:40:56;;;;;;;;;;;;;;;2.02;40.33;92778.28;4973176;28;19922;-77
2023/03/28 01:43:31;;;;;;;;;;;;;;;1.86;40.99;92786.72;4963223;28;20216;-77
2023/03/28 01:46:05;;;;;;;;;;;;;;;1.77;41.43;92788.09;4989312;28;20376;-78
2023/03/28 01:48:33;;;;;;;;;;;;;;;1.68;41.48;92790.22;4974946;28;20410;-77
2023/03/28 01:51:01;;;;;;;;;;;;;;;1.66;41.23;92787.06;4974267;28;19957;-77
2023/03/28 01:53:33;;;;;;;;;;;;;;;1.62;41.35;92783.34;4974393;28;19964;-77
2023/03/28 01:56:20;;;;;;;;;;;;;;;1.69;40.64;92791.78;4990293;28;20261;-78
2023/03/28 01:59:00;;;;;;;;;;;;;;;1.75;40.69;92780.56;4971056;28;20009;-77
2023/03/28 02:02:04;;;;;;;;;;;;;;;1.72;41.23;92781.00;4964036;28;19937;-77
2023/03/28 02:04:32;;;;;;;;;;;;;;;1.62;41.08;92783.34;4973849;28;19964;-77
2023/03/28 02:06:59;;;;;;;;;;;;;;;1.75;40.28;92780.56;4974112;28;20369;-77
2023/03/28 02:09:31;;;;;;;;;;;;;;;1.75;39.90;92785.72;4974048;28;19998;-77
2023/03/28 02:12:05;;;;;;;;;;;;;;;1.62;40.06;92789.31;4975371;28;19989;-77
2023/03/28 02:14:50;;;;;;;;;;;;;;;1.66;39.68;92784.47;4974691;28;20508;-77
2023/03/28 02:17:42;;;;;;;;;;;;;;;1.62;40.33;92796.25;4970229;28;20250;-77
2023/03/28 02:20:27;;;;;;;;;;;;;;;1.51;39.91;92795.25;4954590;28;20427;-77
2023/03/28 02:23:10;;;;;;;;;;;;;;;1.45;39.83;92799.50;4955789;29;19915;-77
2023/03/28 02:26:00;;;;;;;;;;;;;;;1.42;40.17;92794.78;4954827;29;19918;-77
2023/03/28 02:28:51;;;;;;;;;;;;;;;1.42;39.73;92794.78;4951449;28;20348;-78
2023/03/28 02:31:36;;;;;;;;;;;;;;;1.40;39.62;92794.22;4957900;28;19925;-78
2023/03/28 02:34:02;;;;;;;;;;;;;;;1.39;39.42;92792.63;4976201;28;19914;-78
2023/03/28 02:36:31;;;;;;;;;;;;;;;1.44;38.97;92795.34;4975416;28;20376;-78
2023/03/28 02:39:15;;;;;;;;;;;;;;;1.42;39.08;92794.78;4975093;28;20170;-78
2023/03/28 02:41:50;;;;;;;;;;;;;;;1.44;38.16;92797.94;4974816;28;19914;-78
2023/03/28 02:44:28;;;;;;;;;;;;;;;1.42;38.39;92791.44;4970290;28;19957;-78
2023/03/28 02:47:05;;;;;;;;;;;;;;;1.35;38.66;92794.09;4954096;29;19918;-78
2023/03/28 02:49:39;;;;;;;;;;;;;;;1.32;38.73;92791.97;4980246;28;19918;-78
2023/03/28 02:52:14;;;;;;;;;;;;;;;1.42;38.46;92799.94;4973285;28;19925;-77
2023/03/28 02:54:40;;;;;;;;;;;;;;;1.42;37.91;92799.94;4973694;28;19920;-78
2023/03/28 02:57:27;;;;;;;;;;;;;;;1.40;37.97;92796.03;4973429;28;20393;-78
2023/03/28 02:59:56;;;;;;;;;;;;;;;1.43;38.13;92796.34;4989578;28;19922;-77
2023/03/28 03:02:22;;;;;;;;;;;;;;;1.38;38.37;92803.97;4972806;28;20304;-78
2023/03/28 03:04:49;;;;;;;;;;;;;;;1.35;38.14;92799.28;4969528;28;19919;-76
2023/03/28 03:07:16;;;;;;;;;;;;;;;1.35;37.90;92801.03;4973760;28;19926;-78
2023/03/28 03:09:44;;;;;;;;;;;;;;;1.57;37.53;92806.47;4967630;28;20467;-77
2023/03/28 03:12:10;;;;;;;;;;;;;;;1.53;36.58;92805.34;4989242;28;19997;-78
2023/03/28 03:14:37;;;;;;;;;;;;;;;1.48;36.57;92807.81;4973530;28;19925;-78
2023/03/28 03:17:23;;;;;;;;;;;;;;;1.42;37.61;92807.69;4972541;28;19924;-78
2023/03/28 03:19:48;;;;;;;;;;;;;;;1.36;37.28;92808.56;4964938;28;19922;-78
2023/03/28 03:22:14;;;;;;;;;;;;;;;1.39;37.04;92808.13;4966042;28;20055;-78
2023/03/28 03:24:49;;;;;;;;;;;;;;;1.41;36.56;92806.09;4970547;28;19918;-78
2023/03/28 03:27:16;;;;;;;;;;;;;;;1.34;37.18;92814.97;4989278;28;20299;-78
2023/03/28 03:29:41;;;;;;;;;;;;;;;1.30;37.10;92814.59;4972430;28;19953;-78
2023/03/28 03:32:13;;;;;;;;;;;;;;;1.28;37.34;92815.84;4972548;28;19927;-77
2023/03/28 03:34:43;;;;;;;;;;;;;;;1.27;36.83;92816.84;4956713;28;19918;-77
2023/03/28 03:37:08;;;;;;;;;;;;;;;1.19;37.39;92815.34;4969769;28;19930;-78
2023/03/28 03:39:35;;;;;;;;;;;;;;;1.27;36.90;92814.28;4987311;28;19941;-77
2023/03/28 03:42:01;;;;;;;;;;;;;;;1.14;37.10;92816.03;4973611;28;19918;-78
2023/03/28 03:44:30;;;;;;;;;;;;;;;1.07;37.10;92814.56;4956491;28;19914;-78
2023/03/28 03:46:56;;;;;;;;;;;;;;;1.04;37.89;92816.56;4971970;28;19926;-77
2023/03/28 03:49:22;;;;;;;;;;;;;;;1.06;36.87;92823.28;4972307;28;20130;-78
2023/03/28 03:51:48;;;;;;;;;;;;;;;0.98;37.97;92817.44;4988321;28;20036;-78
2023/03/28 03:54:15;;;;;;;;;;;;;;;1.00;37.12;92818.00;4984830;28;19918;-78
2023/03/28 03:56:41;;;;;;;;;;;;;;;1.01;36.85;92819.59;4948748;28;19926;-78
2023/03/28 03:59:06;;;;;;;;;;;;;;;0.96;37.31;92819.44;4955956;28;19910;-77
2023/03/28 04:01:38;;;;;;;;;;;;;;;0.90;38.38;92828.06;4951389;28;20368;-78
2023/03/28 04:04:22;;;;;;;;;;;;;;;0.86;37.51;92824.34;4970276;28;19926;-78
2023/03/28 04:07:13;;;;;;;;;;;;;;;0.89;37.21;92823.91;4970255;28;19977;-78
2023/03/28 04:09:39;;;;;;;;;;;;;;;0.91;37.19;92826.28;4962312;28;19965;-78
2023/03/28 04:12:06;;;;;;;;;;;;;;;0.91;36.70;92828.84;4953454;28;20370;-77
2023/03/28 04:14:41;;;;;;;;;;;;;;;0.92;36.58;92831.19;4973420;28;19914;-78
2023/03/28 04:17:45;;;;;;;;;;;;;;;0.92;36.71;92843.28;4951551;28;20038;-78
2023/03/28 04:20:16;;;;;;;;;;;;;;;0.91;37.08;92842.50;4927601;29;19972;-78
2023/03/28 04:23:04;;;;;;;;;;;;;;;0.91;36.77;92845.09;4949163;29;19926;-77
2023/03/28 04:25:30;;;;;;;;;;;;;;;0.94;36.38;92842.06;4967759;28;20324;-78
2023/03/28 04:28:02;;;;;;;;;;;;;;;1.03;36.56;92840.75;4971226;28;20427;-78
2023/03/28 04:30:32;;;;;;;;;;;;;;;1.07;35.96;92838.53;4976773;28;19970;-78
2023/03/28 04:33:18;;;;;;;;;;;;;;;1.11;35.72;92836.31;4976988;28;19965;-78
2023/03/28 04:35:44;;;;;;;;;;;;;;;1.07;36.16;92833.38;4978728;28;19977;-78
2023/03/28 04:38:10;;;;;;;;;;;;;;;1.17;35.51;92825.91;4979611;28;19965;-78
2023/03/28 04:40:38;;;;;;;;;;;;;;;1.22;35.29;92833.78;4976374;28;19918;-77
2023/03/28 04:43:35;;;;;;;;;;;;;;;1.24;35.24;92818.09;4974835;28;20399;-77
2023/03/28 04:46:01;;;;;;;;;;;;;;;1.18;35.84;92817.16;4975563;28;19918;-76
2023/03/28 04:48:26;;;;;;;;;;;;;;;1.15;36.27;92824.53;4975915;28;19945;-77
2023/03/28 04:50:52;;;;;;;;;;;;;;;1.16;35.57;92819.16;4980937;28;19993;-78
2023/03/28 04:53:18;;;;;;;;;;;;;;;1.13;36.41;92824.00;4979567;28;19929;-81
2023/03/28 04:56:04;;;;;;;;;;;;;;;1.15;36.30;92822.78;4980359;28;19921;-80
2023/03/28 04:58:32;;;;;;;;;;;;;;;1.08;35.83;92823.84;4974481;28;19914;-73
2023/03/28 05:01:01;;;;;;;;;;;;;;;1.25;34.77;92812.69;4975444;28;19919;-80
2023/03/28 05:03:50;;;;;;;;;;;;;;;1.38;34.20;92829.00;4935780;29;19984;-79
2023/03/28 05:06:15;;;;;;;;;;;;;;;1.40;34.20;92825.19;4958585;29;19950;-79
2023/03/28 05:08:42;;;;;;;;;;;;;;;1.40;34.22;92825.19;4978555;28;19946;-79
2023/03/28 05:11:08;;;;;;;;;;;;;;;1.40;34.00;92838.09;4956415;28;20220;-79
2023/03/28 05:13:35;;;;;;;;;;;;;;;1.36;34.49;92838.75;4959037;28;20645;-80
2023/03/28 05:16:09;;;;;;;;;;;;;;;1.31;35.56;92841.97;4960638;29;19957;-79
2023/03/28 05:19:03;;;;;;;;;;;;;;;1.28;35.11;92851.94;4926859;28;20018;-79
2023/03/28 05:21:52;;;;;;;;;;;;;;;1.21;34.85;92857.97;4963325;28;19980;-79
2023/03/28 05:24:18;;;;;;;;;;;;;;;1.21;34.68;92859.78;4967014;28;19918;-79
2023/03/28 05:26:44;;;;;;;;;;;;;;;1.29;34.16;92861.28;4981479;28;20309;-79
2023/03/28 05:29:09;;;;;;;;;;;;;;;1.28;34.83;92857.09;4978431;28;19972;-79
2023/03/28 05:31:36;;;;;;;;;;;;;;;1.47;36.81;92860.44;4977817;28;19930;-77
2023/03/28 05:34:23;;;;;;;;;;;;;;;1.42;36.88;92863.66;4979215;28;20009;-79
2023/03/28 05:36:48;;;;;;;;;;;;;;;1.48;35.58;92869.72;4977084;28;20012;-79
2023/03/28 05:39:22;;;;;;;;;;;;;;;1.61;36.17;92874.69;4978193;28;19942;-77
2023/03/28 05:41:50;;;;;;;;;;;;;;;1.79;35.05;92874.59;4977732;28;19918;-77
2023/03/28 05:44:16;;;;;;;;;;;;;;;1.84;35.34;92886.84;4978685;28;19921;-76
2023/03/28 05:47:17;;;;;;;;;;;;;;;1.98;35.32;92885.66;4936608;29;19925;-79
2023/03/28 05:49:43;;;;;;;;;;;;;;;2.02;36.11;92888.56;4964969;28;19964;-78
2023/03/28 05:52:09;;;;;;;;;;;;;;;2.07;35.83;92896.41;4976726;28;19914;-79
2023/03/28 05:54:35;;;;;;;;;;;;;;;2.15;35.45;92901.25;4977650;28;19917;-81
2023/03/28 05:57:01;;;;;;;;;;;;;;;2.53;35.76;92900.00;4959690;28;19921;-79
2023/03/28 05:59:27;;;;;;;;;;;;;;;3.76;34.38;92899.75;4976649;28;19918;-80
2023/03/28 06:01:54;;;;;;;;;;;;;;;4.95;32.96;92905.59;4959978;28;20389;-79
2023/03/28 06:04:21;;;;;;;;;;;;;;;5.95;32.09;92908.75;4976159;28;19933;-80
2023/03/28 06:06:47;;;;;;;;;;;;;;;7.04;30.87;92906.63;4968255;28;19915;-78
2023/03/28 06:09:15;;;;;;;;;;;;;;;7.77;28.36;92912.84;4943064;28;19969;-80
2023/03/28 06:11:53;;;;;;;;;;;;;;;8.58;27.59;92916.56;4947655;28;19949;-80
2023/03/28 06:14:18;;;;;;;;;;;;;;;9.52;25.87;92924.66;4966403;28;20447;-81
2023/03/28 06:16:44;;;;;;;;;;;;;;;10.05;25.68;92930.16;4973718;28;20355;-80
2023/03/28 06:19:10;;;;;;;;;;;;;;;10.41;24.74;92929.94;4956812;29;19961;-81
2023/03/28 06:21:35;;;;;;;;;;;;;;;10.73;24.57;92936.47;4963542;28;19978;-80
2023/03/28 06:24:05;;;;;;;;;;;;;;;11.34;24.20;92935.88;4966155;28;19918;-80
2023/03/28 06:26:35;;;;;;;;;;;;;;;11.74;23.56;92941.69;4974613;28;19937;-78
2023/03/28 06:29:00;;;;;;;;;;;;;;;12.29;21.77;92944.66;4976264;28;19918;-79
2023/03/28 06:31:39;;;;;;;;;;;;;;;12.99;21.94;92950.94;4977510;28;20435;-79
2023/03/28 06:34:05;;;;;;;;;;;;;;;13.84;20.98;92937.53;4975048;28;20247;-80
2023/03/28 06:36:32;;;;;;;;;;;;;;;13.92;19.37;92945.50;4975239;28;20265;-78
2023/03/28 06:38:57;;;;;;;;;;;;;;;14.46;20.48;92950.16;4974886;28;19925;-79
2023/03/28 06:41:24;;;;;;;;;;;;;;;14.70;19.73;92942.78;4973270;28;20230;-80
2023/03/28 06:43:50;;;;;;;;;;;;;;;14.94;19.23;92944.31;4972124;28;19973;-80
2023/03/28 06:46:34;;;;;;;;;;;;;;;15.37;18.48;92938.47;4974221;28;19925;-78
2023/03/28 06:49:00;;;;;;;;;;;;;;;16.08;18.07;92950.81;4971699;28;19917;-81
2023/03/28 06:51:26;;;;;;;;;;;;;;;16.17;17.49;92949.75;4987880;28;19926;-82
2023/03/28 06:57:16;;;;;;;;;;;;;;;16.59;16.72;92946.63;4976300;28;19922;-82
2023/03/28 06:59:51;;;;;;;;;;;;;;;16.26;16.69;92957.69;4958378;29;20423;-83
2023/03/28 07:02:25;;;;;;;;;;;;;;;17.23;16.28;92957.31;4943041;28;20376;-82
2023/03/28 07:04:55;;;;;;;;;;;;;;;17.60;15.69;92960.28;4980073;28;20001;-79
2023/03/28 07:07:21;;;;;;;;;;;;;;;18.12;15.15;92955.84;4956629;28;19964;-80
2023/03/28 07:09:48;;;;;;;;;;;;;;;18.85;14.57;92958.94;4990669;28;19922;-80
2023/03/28 07:12:14;;;;;;;;;;;;;;;17.95;15.09;92962.81;4975557;28;19925;-82
2023/03/28 07:14:43;;;;;;;;;;;;;;;18.03;14.38;92969.91;4976206;28;19918;-79
2023/03/28 07:17:09;;;;;;;;;;;;;;;16.47;15.60;92970.28;4975020;28;19914;-82
2023/03/28 07:19:35;;;;;;;;;;;;;;;14.42;17.39;92962.38;4975475;28;19973;-82
2023/03/28 07:22:00;;;;;;;;;;;;;;;13.27;19.04;92975.38;4973503;28;19945;-82
2023/03/28 07:24:26;;;;;;;;;;;;;;;13.19;18.38;92983.94;4991846;28;19918;-79
2023/03/28 07:27:04;;;;;;;;;;;;;;;11.66;22.01;92982.44;4977110;28;19917;-83
2023/03/28 07:29:30;;;;;;;;;;;;;;;12.07;20.61;92989.06;4973653;28;20253;-82
2023/03/28 07:31:55;;;;;;;;;;;;;;;12.03;20.33;92982.81;4965034;28;20376;-81
2023/03/28 07:34:21;;;;;;;;;;;;;;;12.55;21.27;92983.66;4974352;28;20339;-82
2023/03/28 07:36:49;;;;;;;;;;;;;;;11.60;19.24;92980.16;4978251;28;19987;-81
2023/03/28 07:39:25;;;;;;;;;;;;;;;10.40;21.74;92984.13;4976724;28;19957;-82
2023/03/28 07:41:53;;;;;;;;;;;;;;;9.89;23.79;92986.22;4959888;28;19914;-82
2023/03/28 07:44:19;;;;;;;;;;;;;;;9.00;25.06;92993.78;4976001;28;20481;-81
2023/03/28 07:46:45;;;;;;;;;;;;;;;9.01;25.02;92988.31;4975473;28;19973;-81
2023/03/28 07:49:14;;;;;;;;;;;;;;;8.46;24.90;92995.88;4974373;28;19918;-81
2023/03/28 07:51:40;;;;;;;;;;;;;;;8.55;24.99;92996.94;4973822;28;20288;-82
2023/03/28 07:54:06;;;;;;;;;;;;;;;8.31;25.52;92996.66;4971545;28;19918;-82
2023/03/28 07:56:32;;;;;;;;;;;;;;;7.88;25.13;92997.84;4975897;28;19925;-80
2023/03/28 07:59:08;;;;;;;;;;;;;;;7.61;27.09;93006.63;4974876;28;19953;-80
2023/03/28 08:01:33;;;;;;;;;;;;;;;7.43;26.48;92999.22;4976244;28;20365;-80
2023/03/28 08:04:03;;;;;;;;;;;;;;;7.40;25.66;93002.34;4976205;28;20013;-80
2023/03/28 08:06:47;;;;;;;;;;;;;;;7.75;26.33;93003.56;4975690;28;19968;-81
2023/03/28 08:09:14;;;;;;;;;;;;;;;8.08;27.03;93010.94;4975901;28;19918;-81
2023/03/28 08:11:42;;;;;;;;;;;;;;;8.28;25.03;93014.63;4975653;28;19914;-80
2023/03/28 08:14:13;;;;;;;;;;;;;;;8.54;24.38;93020.69;4975938;28;19972;-80
2023/03/28 08:16:39;;;;;;;;;;;;;;;8.20;24.17;93025.56;4974413;28;20376;-79
2023/03/28 08:19:04;;;;;;;;;;;;;;;8.67;24.73;93027.22;4976175;28;20021;-81
2023/03/28 08:21:30;;;;;;;;;;;;;;;9.05;22.81;93020.69;4975426;28;19917;-81
2023/03/28 08:23:56;;;;;;;;;;;;;;;9.28;23.00;93014.13;4963138;28;19925;-80
2023/03/28 08:26:31;;;;;;;;;;;;;;;8.67;23.54;93019.38;4974997;28;19917;-81
2023/03/28 08:28:59;;;;;;;;;;;;;;;8.94;23.68;93025.13;4971680;28;20024;-80
2023/03/28 08:31:27;;;;;;;;;;;;;;;9.09;22.89;93026.16;4966096;28;20268;-82
2023/03/28 08:33:57;;;;;;;;;;;;;;;9.26;22.98;93018.81;4958288;28;19921;-81
2023/03/28 08:36:27;;;;;;;;;;;;;;;9.17;22.04;93018.56;4973916;28;19918;-83
2023/03/28 08:38:59;;;;;;;;;;;;;;;8.89;26.47;93021.72;4973989;28;19940;-78
2023/03/28 08:41:39;;;;;;;;;;;;;;;8.82;25.81;93022.00;4974988;28;20012;-80
2023/03/28 08:44:23;;;;;;;;;;;;;;;8.53;24.01;93030.34;4964312;28;19925;-80
2023/03/28 08:46:53;;;;;;;;;;;;;;;8.64;24.05;93025.13;4956893;28;19920;-81
2023/03/28 08:49:18;;;;;;;;;;;;;;;8.50;24.50;93027.47;4974825;28;19910;-80
2023/03/28 08:51:46;;;;;;;;;;;;;;;8.47;23.89;93035.81;4975244;28;19919;-81
2023/03/28 08:54:18;;;;;;;;;;;;;;;9.05;24.30;93040.78;4988645;28;19941;-80
2023/03/28 08:56:47;;;;;;;;;;;;;;;9.57;22.86;93042.28;4974996;28;19925;-82
2023/03/28 08:59:15;;;;;;;;;;;;;;;9.64;22.25;93032.31;4973008;28;20304;-81
2023/03/28 09:01:41;;;;;;;;;;;;;;;9.93;22.73;93042.94;4974094;28;19921;-81
2023/03/28 09:04:19;;;;;;;;;;;;;;;9.76;22.37;93037.25;4958908;28;20387;-82
2023/03/28 09:06:48;;;;;;;;;;;;;;;9.79;21.27;93040.13;4973998;28;19918;-82
2023/03/28 09:09:18;;;;;;;;;;;;;;;10.08;23.42;93049.91;4972209;28;19922;-81
2023/03/28 09:12:13;;;;;;;;;;;;;;;10.37;23.65;93051.91;4972925;28;19918;-81
2023/03/28 09:15:08;;;;;;;;;;;;;;;10.56;23.32;93047.63;4964439;28;19914;-82
2023/03/28 09:17:52;;;;;;;;;;;;;;;11.04;23.08;93047.00;4965971;28;19916;-82
2023/03/28 09:20:37;;;;;;;;;;;;;;;10.84;22.08;93042.72;4974645;28;19930;-82
2023/03/28 09:23:05;;;;;;;;;;;;;;;11.10;22.43;93039.88;4973119;28;19918;-82
2023/03/28 09:25:45;;;;;;;;;;;;;;;11.41;22.18;93050.88;4970969;28;19977;-82
2023/03/28 09:28:30;;;;;;;;;;;;;;;11.26;22.57;93043.94;4964470;28;20369;-80
2023/03/28 09:30:57;;;;;;;;;;;;;;;11.14;21.75;93040.88;4987550;28;19940;-81
2023/03/28 09:33:26;;;;;;;;;;;;;;;11.07;20.21;93038.59;4979361;28;19971;-79
2023/03/28 09:35:54;;;;;;;;;;;;;;;10.60;20.60;93043.41;4987994;28;20056;-80
2023/03/28 09:38:40;;;;;;;;;;;;;;;10.40;20.36;93038.28;4978697;28;19920;-82
2023/03/28 09:41:11;;;;;;;;;;;;;;;10.16;20.90;93044.13;4977083;28;20016;-82
2023/03/28 09:43:56;;;;;;;;;;;;;;;10.00;20.24;93043.44;4977126;28;19913;-80
2023/03/28 09:46:55;;;;;;;;;;;;;;;10.76;21.54;93040.66;4956508;28;19946;-81
2023/03/28 09:49:22;;;;;;;;;;;;;;;10.81;22.31;93038.03;4978142;28;20555;-82
2023/03/28 09:51:56;;;;;;;;;;;;;;;10.84;19.56;93040.09;4976634;28;20327;-81
2023/03/28 09:54:27;;;;;;;;;;;;;;;10.70;20.17;93031.31;4975184;28;20009;-80
2023/03/28 09:56:57;;;;;;;;;;;;;;;10.54;19.57;93033.25;4970471;28;20009;-81
2023/03/28 09:59:35;;;;;;;;;;;;;;;10.19;19.92;93043.59;4977279;28;20384;-81
2023/03/28 10:02:23;;;;;;;;;;;;;;;10.03;20.02;93044.72;4990661;28;19925;-82
2023/03/28 10:04:50;;;;;;;;;;;;;;;10.53;21.13;93053.38;4994553;28;19924;-80
2023/03/28 10:07:41;;;;;;;;;;;;;;;11.01;21.74;93047.53;4963826;28;19918;-80
2023/03/28 10:10:27;;;;;;;;;;;;;;;11.50;21.33;93054.44;4970734;28;20523;-81
2023/03/28 10:13:01;;;;;;;;;;;;;;;11.02;20.17;93049.91;4976342;28;19925;-82
2023/03/28 10:15:31;;;;;;;;;;;;;;;11.20;20.09;93040.56;4975587;28;19921;-81
2023/03/28 10:18:17;;;;;;;;;;;;;;;11.33;20.37;93046.25;4978660;28;20004;-81
2023/03/28 10:20:44;;;;;;;;;;;;;;;11.44;19.28;93045.88;4973894;28;19921;-81
2023/03/28 10:23:11;;;;;;;;;;;;;;;11.05;19.16;93038.06;4991540;28;19937;-82
2023/03/28 10:25:41;;;;;;;;;;;;;;;11.23;21.56;93032.16;4976472;28;19918;-81
2023/03/28 10:28:13;;;;;;;;;;;;;;;11.40;21.77;93031.75;4977399;28;20375;-82
2023/03/28 10:30:40;;;;;;;;;;;;;;;11.60;21.18;93033.38;4977622;28;19918;-83
2023/03/28 10:33:15;;;;;;;;;;;;;;;11.98;22.20;93030.09;4986615;28;19966;-82
2023/03/28 10:36:08;;;;;;;;;;;;;;;11.54;20.79;93031.09;4969308;28;20073;-81
2023/03/28 10:38:43;;;;;;;;;;;;;;;11.20;20.29;93039.78;4974797;28;19969;-81
2023/03/28 10:41:36;;;;;;;;;;;;;;;10.97;20.33;93034.22;4958724;28;19925;-81
2023/03/28 10:44:15;;;;;;;;;;;;;;;10.77;20.45;93037.00;4973034;28;19918;-82
2023/03/28 10:46:45;;;;;;;;;;;;;;;10.75;22.06;93031.25;4981032;28;19924;-80
2023/03/28 10:49:18;;;;;;;;;;;;;;;10.98;20.14;93040.25;4977998;28;19918;-81
2023/03/28 10:51:53;;;;;;;;;;;;;;;11.00;19.49;93035.50;4993632;28;19918;-81
2023/03/28 10:54:18;;;;;;;;;;;;;;;10.99;19.89;93034.72;4970567;28;19914;-81
2023/03/28 10:56:49;;;;;;;;;;;;;;;10.78;19.95;93038.56;4977024;28;19914;-81
2023/03/28 10:59:21;;;;;;;;;;;;;;;10.68;20.02;93041.25;4978997;28;19914;-82
2023/03/28 11:02:07;;;;;;;;;;;;;;;10.75;18.82;93028.63;4972788;28;19914;-81
2023/03/28 11:04:47;;;;;;;;;;;;;;;10.59;19.51;93030.59;4977061;28;20301;-81
2023/03/28 11:07:21;;;;;;;;;;;;;;;10.66;19.99;93022.41;4979312;28;19921;-82
2023/03/28 11:10:13;;;;;;;;;;;;;;;10.94;19.85;93024.31;4965396;28;20017;-81
2023/03/28 11:13:29;;;;;;;;;;;;;;;10.80;20.64;93020.72;4950562;28;19925;-81
2023/03/28 11:15:58;;;;;;;;;;;;;;;10.72;19.48;93016.88;4989310;28;19977;-80
2023/03/28 11:18:32;;;;;;;;;;;;;;;10.80;18.54;93010.25;4958068;28;19973;-80
2023/03/28 11:21:09;;;;;;;;;;;;;;;11.08;20.33;93008.72;4962791;28;19969;-80
2023/03/28 11:23:45;;;;;;;;;;;;;;;11.19;18.11;93009.41;4971507;28;19914;-81
2023/03/28 11:26:33;;;;;;;;;;;;;;;11.48;19.22;93008.59;4979260;28;19918;-81
2023/03/28 11:29:16;;;;;;;;;;;;;;;11.69;19.09;93009.94;4959505;29;19914;-81
2023/03/28 11:31:52;;;;;;;;;;;;;;;11.80;17.51;93002.75;4959300;28;19939;-81
2023/03/28 11:34:20;;;;;;;;;;;;;;;11.59;17.34;92994.31;4978324;28;19921;-81
2023/03/28 11:36:52;;;;;;;;;;;;;;;11.74;19.67;93011.72;4961429;28;20033;-82
2023/03/28 11:39:41;;;;;;;;;;;;;;;11.92;17.87;93005.78;4954745;28;19918;-82
2023/03/28 11:42:25;;;;;;;;;;;;;;;12.08;20.14;93011.59;4976127;28;19921;-81
2023/03/28 11:44:54;;;;;;;;;;;;;;;12.65;18.14;93004.53;4974622;28;20336;-82
2023/03/28 11:47:24;;;;;;;;;;;;;;;12.57;18.15;93005.16;4970324;28;19918;-82
2023/03/28 11:50:05;;;;;;;;;;;;;;;12.45;18.20;92997.72;4962238;28;20009;-81
2023/03/28 11:52:55;;;;;;;;;;;;;;;12.21;18.12;92995.16;4949650;29;19918;-82
2023/03/28 11:55:25;;;;;;;;;;;;;;;12.17;18.21;92985.53;4959201;28;19914;-82
2023/03/28 11:58:00;;;;;;;;;;;;;;;12.39;17.17;92979.72;4965011;28;20176;-82
2023/03/28 12:00:27;;;;;;;;;;;;;;;12.04;17.10;92984.38;4959581;29;19919;-81
2023/03/28 12:03:00;;;;;;;;;;;;;;;12.23;17.89;92987.78;4974022;28;19922;-82
2023/03/28 12:05:29;;;;;;;;;;;;;;;12.71;16.61;92984.97;4958027;29;19914;-82
2023/03/28 12:08:06;;;;;;;;;;;;;;;12.54;16.36;92974.25;4967690;28;20004;-81
2023/03/28 12:10:35;;;;;;;;;;;;;;;12.71;18.51;92976.31;4975392;28;19953;-82
2023/03/28 12:13:17;;;;;;;;;;;;;;;12.89;16.88;92972.09;4975572;28;20009;-82
2023/03/28 12:16:01;;;;;;;;;;;;;;;12.56;17.10;92969.44;4984023;28;19977;-80
2023/03/28 12:18:32;;;;;;;;;;;;;;;12.67;16.99;92968.22;4974229;28;19922;-79
2023/03/28 12:21:06;;;;;;;;;;;;;;;12.34;15.44;92977.13;4976297;28;19973;-81
2023/03/28 12:23:57;;;;;;;;;;;;;;;12.55;16.42;92967.13;4969078;28;19921;-81
2023/03/28 12:26:56;;;;;;;;;;;;;;;12.50;17.51;92968.00;4968228;28;20324;-82
2023/03/28 12:29:36;;;;;;;;;;;;;;;12.74;16.85;92965.25;4975495;28;19992;-82
2023/03/28 12:32:05;;;;;;;;;;;;;;;12.49;17.39;92958.53;4973341;28;19918;-82
2023/03/28 12:34:32;;;;;;;;;;;;;;;12.18;18.03;92963.44;4970865;28;19969;-82
2023/03/28 12:37:40;;;;;;;;;;;;;;;12.04;17.57;92956.28;4974822;28;19961;-81
2023/03/28 12:40:13;;;;;;;;;;;;;;;12.36;18.32;92946.13;4970085;28;19914;-79
2023/03/28 12:42:42;;;;;;;;;;;;;;;12.72;19.12;92951.59;4956390;28;19953;-80
2023/03/28 12:45:13;;;;;;;;;;;;;;;12.76;18.42;92957.06;4957094;28;19926;-79
2023/03/28 12:47:45;;;;;;;;;;;;;;;12.80;18.36;92947.56;4966402;28;19914;-81
2023/03/28 12:50:18;;;;;;;;;;;;;;;12.94;18.71;92952.84;4973316;28;19958;-81
2023/03/28 12:52:45;;;;;;;;;;;;;;;13.02;17.51;92947.72;4970602;28;19966;-81
2023/03/28 12:55:24;;;;;;;;;;;;;;;12.70;17.72;92957.16;4971461;28;20327;-81
2023/03/28 12:57:52;;;;;;;;;;;;;;;12.78;17.38;92944.44;4972097;28;19915;-81
2023/03/28 13:01:11;;;;;;;;;;;;;;;13.08;17.74;92945.75;4971571;28;20145;-81
2023/03/28 13:03:36;;;;;;;;;;;;;;;12.68;18.09;92950.66;4968153;28;19913;-81
2023/03/28 13:06:07;;;;;;;;;;;;;;;12.63;18.15;92941.00;4968890;28;19937;-81
2023/03/28 13:08:48;;;;;;;;;;;;;;;12.62;17.99;92949.16;4984929;28;19921;-82
2023/03/28 13:11:24;;;;;;;;;;;;;;;12.68;17.65;92948.78;4970417;28;20670;-81
2023/03/28 13:13:57;;;;;;;;;;;;;;;12.53;17.22;92946.41;4987598;28;19966;-81
2023/03/28 13:16:25;;;;;;;;;;;;;;;12.48;18.07;92931.50;4969611;28;20254;-81
2023/03/28 13:19:10;;;;;;;;;;;;;;;12.71;18.32;92932.44;4974422;28;19910;-80
2023/03/28 13:21:55;;;;;;;;;;;;;;;12.84;17.52;92922.28;4973294;28;19925;-81
2023/03/28 13:24:23;;;;;;;;;;;;;;;12.71;17.64;92919.31;4962363;28;20008;-81
2023/03/28 13:26:56;;;;;;;;;;;;;;;12.75;17.07;92910.88;4973979;28;19914;-80